sensor_id;sensor_type;location;lat;lon;timestamp;P1;durP1;ratioP1;P2;durP2;ratioP2
17886;SDS011;9069;52.044;7.472;2022-09-20T00:01:29;7.55;;;1.55;;
17886;SDS011;9069;52.044;7.472;2022-09-20T00:03:58;6.50;;;1.10;;
17886;SDS011;9069;52.044;7.472;2022-09-20T00:06:29;5.90;;;1.40;;
17886;SDS011;9069;52.044;7.472;2022-09-20T00:08:58;3.28;;;1.33;;
17886;SDS011;9069;52.044;7.472;2022-09-20T00:11:27;9.95;;;1.40;;
17886;SDS011;9069;52.044;7.472;2022-09-20T00:13:55;5.03;;;1.25;;
17886;SDS011;9069;52.044;7.472;2022-09-20T00:16:24;7.95;;;1.50;;
17886;SDS011;9069;52.044;7.472;2022-09-20T00:18:54;4.75;;;1.13;;
17886;SDS011;9069;52.044;7.472;2022-09-20T00:21:23;10.02;;;1.40;;
17886;SDS011;9069;52.044;7.472;2022-09-20T00:23:54;8.80;;;1.15;;
17886;SDS011;9069;52.044;7.472;2022-09-20T00:26:23;7.22;;;1.35;;
17886;SDS011;9069;52.044;7.472;2022-09-20T00:28:50;5.38;;;1.10;;
17886;SDS011;9069;52.044;7.472;2022-09-20T00:31:17;3.67;;;0.90;;
17886;SDS011;9069;52.044;7.472;2022-09-20T00:33:44;7.13;;;1.20;;
17886;SDS011;9069;52.044;7.472;2022-09-20T00:36:30;7.20;;;1.20;;
17886;SDS011;9069;52.044;7.472;2022-09-20T00:38:57;5.80;;;1.52;;
17886;SDS011;9069;52.044;7.472;2022-09-20T00:41:27;9.98;;;1.17;;
17886;SDS011;9069;52.044;7.472;2022-09-20T00:43:54;6.05;;;1.23;;
17886;SDS011;9069;52.044;7.472;2022-09-20T00:46:22;7.35;;;1.05;;
17886;SDS011;9069;52.044;7.472;2022-09-20T00:48:54;3.47;;;0.80;;
17886;SDS011;9069;52.044;7.472;2022-09-20T00:51:27;5.32;;;1.40;;
17886;SDS011;9069;52.044;7.472;2022-09-20T00:53:57;5.75;;;1.13;;
17886;SDS011;9069;52.044;7.472;2022-09-20T00:56:28;7.25;;;1.20;;
17886;SDS011;9069;52.044;7.472;2022-09-20T01:02:03;4.65;;;0.90;;
17886;SDS011;9069;52.044;7.472;2022-09-20T01:04:35;7.30;;;1.40;;
17886;SDS011;9069;52.044;7.472;2022-09-20T01:07:04;3.17;;;1.25;;
17886;SDS011;9069;52.044;7.472;2022-09-20T01:09:32;11.75;;;1.75;;
17886;SDS011;9069;52.044;7.472;2022-09-20T01:12:00;4.20;;;1.40;;
17886;SDS011;9069;52.044;7.472;2022-09-20T01:14:30;2.30;;;1.10;;
17886;SDS011;9069;52.044;7.472;2022-09-20T01:16:59;6.18;;;1.20;;
17886;SDS011;9069;52.044;7.472;2022-09-20T01:22:43;3.17;;;1.40;;
17886;SDS011;9069;52.044;7.472;2022-09-20T01:25:29;3.13;;;0.85;;
17886;SDS011;9069;52.044;7.472;2022-09-20T01:28:19;5.18;;;1.35;;
17886;SDS011;9069;52.044;7.472;2022-09-20T01:31:02;9.77;;;1.58;;
17886;SDS011;9069;52.044;7.472;2022-09-20T01:33:52;6.88;;;1.13;;
17886;SDS011;9069;52.044;7.472;2022-09-20T01:36:33;6.50;;;1.20;;
17886;SDS011;9069;52.044;7.472;2022-09-20T01:39:11;7.22;;;1.17;;
17886;SDS011;9069;52.044;7.472;2022-09-20T01:44:46;2.38;;;0.85;;
17886;SDS011;9069;52.044;7.472;2022-09-20T02:02:23;5.00;;;1.30;;
17886;SDS011;9069;52.044;7.472;2022-09-20T02:05:31;9.10;;;1.02;;
17886;SDS011;9069;52.044;7.472;2022-09-20T02:13:41;4.72;;;1.13;;
17886;SDS011;9069;52.044;7.472;2022-09-20T02:19:49;6.22;;;1.15;;
17886;SDS011;9069;52.044;7.472;2022-09-20T02:28:06;11.02;;;1.10;;
17886;SDS011;9069;52.044;7.472;2022-09-20T02:33:56;7.53;;;1.20;;
17886;SDS011;9069;52.044;7.472;2022-09-20T02:36:39;5.78;;;1.00;;
17886;SDS011;9069;52.044;7.472;2022-09-20T02:39:51;2.58;;;1.10;;
17886;SDS011;9069;52.044;7.472;2022-09-20T02:45:45;4.03;;;1.10;;
17886;SDS011;9069;52.044;7.472;2022-09-20T02:48:23;2.63;;;1.10;;
17886;SDS011;9069;52.044;7.472;2022-09-20T02:56:51;6.18;;;1.20;;
17886;SDS011;9069;52.044;7.472;2022-09-20T03:02:21;3.90;;;1.13;;
17886;SDS011;9069;52.044;7.472;2022-09-20T03:15:49;5.47;;;1.98;;
17886;SDS011;9069;52.044;7.472;2022-09-20T03:18:38;5.45;;;1.50;;
17886;SDS011;9069;52.044;7.472;2022-09-20T03:24:18;4.97;;;1.00;;
17886;SDS011;9069;52.044;7.472;2022-09-20T03:38:27;4.90;;;1.40;;
17886;SDS011;9069;52.044;7.472;2022-09-20T03:46:27;4.75;;;1.40;;
17886;SDS011;9069;52.044;7.472;2022-09-20T03:51:54;15.73;;;1.75;;
17886;SDS011;9069;52.044;7.472;2022-09-20T03:57:30;10.45;;;1.67;;
17886;SDS011;9069;52.044;7.472;2022-09-20T04:08:46;6.88;;;1.60;;
17886;SDS011;9069;52.044;7.472;2022-09-20T04:12:00;4.43;;;1.08;;
17886;SDS011;9069;52.044;7.472;2022-09-20T04:14:49;9.25;;;1.15;;
17886;SDS011;9069;52.044;7.472;2022-09-20T04:20:49;4.88;;;1.10;;
17886;SDS011;9069;52.044;7.472;2022-09-20T04:26:32;6.55;;;1.80;;
17886;SDS011;9069;52.044;7.472;2022-09-20T04:35:05;5.78;;;1.48;;
17886;SDS011;9069;52.044;7.472;2022-09-20T04:38:09;3.72;;;1.20;;
17886;SDS011;9069;52.044;7.472;2022-09-20T04:44:06;5.60;;;1.00;;
17886;SDS011;9069;52.044;7.472;2022-09-20T05:01:06;2.65;;;1.30;;
17886;SDS011;9069;52.044;7.472;2022-09-20T05:09:25;4.80;;;1.23;;
17886;SDS011;9069;52.044;7.472;2022-09-20T05:15:05;6.45;;;1.83;;
17886;SDS011;9069;52.044;7.472;2022-09-20T05:17:44;9.77;;;1.60;;
17886;SDS011;9069;52.044;7.472;2022-09-20T05:20:48;8.07;;;1.75;;
17886;SDS011;9069;52.044;7.472;2022-09-20T05:29:19;8.13;;;1.50;;
17886;SDS011;9069;52.044;7.472;2022-09-20T05:35:30;6.75;;;1.40;;
17886;SDS011;9069;52.044;7.472;2022-09-20T05:43:48;3.75;;;1.42;;
17886;SDS011;9069;52.044;7.472;2022-09-20T05:49:32;6.97;;;1.60;;
17886;SDS011;9069;52.044;7.472;2022-09-20T05:52:24;5.60;;;1.35;;
17886;SDS011;9069;52.044;7.472;2022-09-20T05:58:15;3.78;;;1.20;;
17886;SDS011;9069;52.044;7.472;2022-09-20T06:00:45;5.25;;;1.50;;
17886;SDS011;9069;52.044;7.472;2022-09-20T06:04:21;2.80;;;1.30;;
17886;SDS011;9069;52.044;7.472;2022-09-20T06:06:30;5.30;;;1.60;;
17886;SDS011;9069;52.044;7.472;2022-09-20T06:09:27;5.00;;;1.27;;
17886;SDS011;9069;52.044;7.472;2022-09-20T06:12:20;19.15;;;2.05;;
17886;SDS011;9069;52.044;7.472;2022-09-20T06:14:56;8.80;;;1.40;;
17886;SDS011;9069;52.044;7.472;2022-09-20T06:17:31;8.57;;;1.65;;
17886;SDS011;9069;52.044;7.472;2022-09-20T06:22:49;4.53;;;1.52;;
17886;SDS011;9069;52.044;7.472;2022-09-20T06:25:21;3.58;;;1.42;;
17886;SDS011;9069;52.044;7.472;2022-09-20T06:28:31;9.07;;;1.70;;
17886;SDS011;9069;52.044;7.472;2022-09-20T06:30:52;8.57;;;1.95;;
17886;SDS011;9069;52.044;7.472;2022-09-20T06:33:21;8.85;;;1.40;;
17886;SDS011;9069;52.044;7.472;2022-09-20T06:41:21;6.53;;;1.83;;
17886;SDS011;9069;52.044;7.472;2022-09-20T06:43:54;9.23;;;1.55;;
17886;SDS011;9069;52.044;7.472;2022-09-20T06:46:27;9.20;;;1.50;;
17886;SDS011;9069;52.044;7.472;2022-09-20T06:48:59;3.55;;;1.20;;
17886;SDS011;9069;52.044;7.472;2022-09-20T06:51:26;9.07;;;2.05;;
17886;SDS011;9069;52.044;7.472;2022-09-20T06:53:58;6.72;;;2.08;;
17886;SDS011;9069;52.044;7.472;2022-09-20T06:56:26;5.20;;;1.35;;
17886;SDS011;9069;52.044;7.472;2022-09-20T06:58:56;4.90;;;1.73;;
17886;SDS011;9069;52.044;7.472;2022-09-20T07:01:22;8.43;;;1.50;;
17886;SDS011;9069;52.044;7.472;2022-09-20T07:03:56;4.57;;;1.52;;
17886;SDS011;9069;52.044;7.472;2022-09-20T07:06:23;4.25;;;1.40;;
17886;SDS011;9069;52.044;7.472;2022-09-20T07:08:50;5.00;;;1.23;;
17886;SDS011;9069;52.044;7.472;2022-09-20T07:11:17;4.40;;;1.63;;
17886;SDS011;9069;52.044;7.472;2022-09-20T07:13:44;7.35;;;1.23;;
17886;SDS011;9069;52.044;7.472;2022-09-20T07:16:15;3.00;;;1.25;;
17886;SDS011;9069;52.044;7.472;2022-09-20T07:18:42;8.35;;;1.67;;
17886;SDS011;9069;52.044;7.472;2022-09-20T07:21:12;9.90;;;1.65;;
17886;SDS011;9069;52.044;7.472;2022-09-20T07:23:40;3.70;;;1.02;;
17886;SDS011;9069;52.044;7.472;2022-09-20T07:26:15;6.22;;;1.48;;
17886;SDS011;9069;52.044;7.472;2022-09-20T07:28:46;3.28;;;0.80;;
17886;SDS011;9069;52.044;7.472;2022-09-20T07:31:18;3.40;;;1.02;;
17886;SDS011;9069;52.044;7.472;2022-09-20T07:33:46;4.05;;;1.10;;
17886;SDS011;9069;52.044;7.472;2022-09-20T07:36:13;4.03;;;1.17;;
17886;SDS011;9069;52.044;7.472;2022-09-20T07:38:42;1.95;;;0.95;;
17886;SDS011;9069;52.044;7.472;2022-09-20T07:41:12;6.38;;;1.08;;
17886;SDS011;9069;52.044;7.472;2022-09-20T07:43:39;3.35;;;0.90;;
17886;SDS011;9069;52.044;7.472;2022-09-20T07:46:05;6.95;;;1.38;;
17886;SDS011;9069;52.044;7.472;2022-09-20T07:48:34;7.25;;;1.00;;
17886;SDS011;9069;52.044;7.472;2022-09-20T07:51:03;7.57;;;1.30;;
17886;SDS011;9069;52.044;7.472;2022-09-20T07:53:34;4.90;;;1.42;;
17886;SDS011;9069;52.044;7.472;2022-09-20T07:56:02;4.65;;;1.50;;
17886;SDS011;9069;52.044;7.472;2022-09-20T07:58:32;2.50;;;1.05;;
17886;SDS011;9069;52.044;7.472;2022-09-20T08:01:04;3.00;;;0.88;;
17886;SDS011;9069;52.044;7.472;2022-09-20T08:03:33;5.55;;;0.80;;
17886;SDS011;9069;52.044;7.472;2022-09-20T08:06:01;5.25;;;0.93;;
17886;SDS011;9069;52.044;7.472;2022-09-20T08:08:36;4.65;;;1.05;;
17886;SDS011;9069;52.044;7.472;2022-09-20T08:11:07;2.95;;;0.77;;
17886;SDS011;9069;52.044;7.472;2022-09-20T08:13:40;2.28;;;0.60;;
17886;SDS011;9069;52.044;7.472;2022-09-20T08:16:29;1.73;;;0.82;;
17886;SDS011;9069;52.044;7.472;2022-09-20T08:18:58;2.38;;;0.73;;
17886;SDS011;9069;52.044;7.472;2022-09-20T08:21:26;5.82;;;0.90;;
17886;SDS011;9069;52.044;7.472;2022-09-20T08:23:56;4.75;;;0.95;;
17886;SDS011;9069;52.044;7.472;2022-09-20T08:26:24;4.05;;;0.95;;
17886;SDS011;9069;52.044;7.472;2022-09-20T08:28:53;1.92;;;1.00;;
17886;SDS011;9069;52.044;7.472;2022-09-20T08:31:22;4.90;;;1.27;;
17886;SDS011;9069;52.044;7.472;2022-09-20T08:33:51;2.65;;;0.77;;
17886;SDS011;9069;52.044;7.472;2022-09-20T08:36:19;8.65;;;0.98;;
17886;SDS011;9069;52.044;7.472;2022-09-20T08:38:50;1.95;;;1.20;;
17886;SDS011;9069;52.044;7.472;2022-09-20T08:41:45;5.50;;;0.80;;
17886;SDS011;9069;52.044;7.472;2022-09-20T08:44:24;3.30;;;1.08;;
17886;SDS011;9069;52.044;7.472;2022-09-20T08:49:39;5.65;;;1.00;;
17886;SDS011;9069;52.044;7.472;2022-09-20T08:52:14;1.42;;;0.65;;
17886;SDS011;9069;52.044;7.472;2022-09-20T08:54:44;2.17;;;0.93;;
17886;SDS011;9069;52.044;7.472;2022-09-20T08:57:14;3.10;;;1.10;;
17886;SDS011;9069;52.044;7.472;2022-09-20T08:59:42;2.65;;;1.08;;
17886;SDS011;9069;52.044;7.472;2022-09-20T09:02:17;2.88;;;1.00;;
17886;SDS011;9069;52.044;7.472;2022-09-20T09:04:46;3.42;;;1.08;;
17886;SDS011;9069;52.044;7.472;2022-09-20T09:07:15;2.17;;;0.80;;
17886;SDS011;9069;52.044;7.472;2022-09-20T09:09:47;2.58;;;1.00;;
17886;SDS011;9069;52.044;7.472;2022-09-20T09:12:25;3.33;;;1.00;;
17886;SDS011;9069;52.044;7.472;2022-09-20T09:14:56;3.40;;;0.85;;
17886;SDS011;9069;52.044;7.472;2022-09-20T09:17:27;3.67;;;1.15;;
17886;SDS011;9069;52.044;7.472;2022-09-20T09:19:55;2.63;;;0.80;;
17886;SDS011;9069;52.044;7.472;2022-09-20T09:22:27;8.40;;;1.15;;
17886;SDS011;9069;52.044;7.472;2022-09-20T09:25:06;2.15;;;0.77;;
17886;SDS011;9069;52.044;7.472;2022-09-20T09:30:20;3.65;;;1.00;;
17886;SDS011;9069;52.044;7.472;2022-09-20T09:33:13;1.13;;;0.65;;
17886;SDS011;9069;52.044;7.472;2022-09-20T09:35:40;1.45;;;0.80;;
17886;SDS011;9069;52.044;7.472;2022-09-20T09:38:16;2.75;;;0.55;;
17886;SDS011;9069;52.044;7.472;2022-09-20T09:40:48;1.40;;;0.85;;
17886;SDS011;9069;52.044;7.472;2022-09-20T09:43:35;5.07;;;1.15;;
17886;SDS011;9069;52.044;7.472;2022-09-20T09:46:21;3.60;;;0.82;;
17886;SDS011;9069;52.044;7.472;2022-09-20T09:51:58;3.42;;;0.60;;
17886;SDS011;9069;52.044;7.472;2022-09-20T09:54:30;1.85;;;0.63;;
17886;SDS011;9069;52.044;7.472;2022-09-20T09:57:11;2.85;;;0.70;;
17886;SDS011;9069;52.044;7.472;2022-09-20T10:02:20;2.45;;;0.90;;
17886;SDS011;9069;52.044;7.472;2022-09-20T10:07:47;0.75;;;0.50;;
17886;SDS011;9069;52.044;7.472;2022-09-20T10:11:06;1.52;;;0.70;;
17886;SDS011;9069;52.044;7.472;2022-09-20T10:16:29;2.35;;;0.68;;
17886;SDS011;9069;52.044;7.472;2022-09-20T10:19:33;5.22;;;1.25;;
17886;SDS011;9069;52.044;7.472;2022-09-20T10:22:11;3.63;;;0.70;;
17886;SDS011;9069;52.044;7.472;2022-09-20T10:28:06;0.70;;;0.60;;
17886;SDS011;9069;52.044;7.472;2022-09-20T10:30:57;4.95;;;0.95;;
17886;SDS011;9069;52.044;7.472;2022-09-20T10:34:00;2.42;;;0.90;;
17886;SDS011;9069;52.044;7.472;2022-09-20T10:36:50;1.58;;;0.80;;
17886;SDS011;9069;52.044;7.472;2022-09-20T10:45:21;4.15;;;0.68;;
17886;SDS011;9069;52.044;7.472;2022-09-20T10:48:23;1.30;;;0.60;;
17886;SDS011;9069;52.044;7.472;2022-09-20T10:51:03;4.20;;;0.98;;
17886;SDS011;9069;52.044;7.472;2022-09-20T10:53:42;3.33;;;1.00;;
17886;SDS011;9069;52.044;7.472;2022-09-20T10:56:32;2.25;;;0.80;;
17886;SDS011;9069;52.044;7.472;2022-09-20T11:04:52;1.52;;;0.50;;
17886;SDS011;9069;52.044;7.472;2022-09-20T11:13:16;2.13;;;0.70;;
17886;SDS011;9069;52.044;7.472;2022-09-20T11:16:05;2.05;;;0.60;;
17886;SDS011;9069;52.044;7.472;2022-09-20T11:18:48;2.05;;;0.75;;
17886;SDS011;9069;52.044;7.472;2022-09-20T11:24:35;2.83;;;0.75;;
17886;SDS011;9069;52.044;7.472;2022-09-20T11:27:11;1.75;;;0.50;;
17886;SDS011;9069;52.044;7.472;2022-09-20T11:29:55;3.38;;;0.73;;
17886;SDS011;9069;52.044;7.472;2022-09-20T11:32:38;4.82;;;0.70;;
17886;SDS011;9069;52.044;7.472;2022-09-20T11:37:37;2.88;;;0.50;;
17886;SDS011;9069;52.044;7.472;2022-09-20T11:42:50;1.52;;;0.60;;
17886;SDS011;9069;52.044;7.472;2022-09-20T11:45:18;1.73;;;0.50;;
17886;SDS011;9069;52.044;7.472;2022-09-20T11:47:55;3.25;;;0.60;;
17886;SDS011;9069;52.044;7.472;2022-09-20T11:58:57;4.00;;;0.80;;
17886;SDS011;9069;52.044;7.472;2022-09-20T12:01:29;4.10;;;0.80;;
17886;SDS011;9069;52.044;7.472;2022-09-20T12:04:00;2.13;;;0.50;;
17886;SDS011;9069;52.044;7.472;2022-09-20T12:07:40;2.80;;;0.80;;
17886;SDS011;9069;52.044;7.472;2022-09-20T12:09:51;2.85;;;0.80;;
17886;SDS011;9069;52.044;7.472;2022-09-20T12:14:58;1.00;;;0.40;;
17886;SDS011;9069;52.044;7.472;2022-09-20T12:18:00;1.48;;;0.50;;
17886;SDS011;9069;52.044;7.472;2022-09-20T12:26:09;1.25;;;0.60;;
17886;SDS011;9069;52.044;7.472;2022-09-20T12:28:46;3.88;;;0.80;;
17886;SDS011;9069;52.044;7.472;2022-09-20T12:36:43;2.65;;;0.60;;
17886;SDS011;9069;52.044;7.472;2022-09-20T12:39:31;3.33;;;0.70;;
17886;SDS011;9069;52.044;7.472;2022-09-20T13:08:46;0.98;;;0.40;;
17886;SDS011;9069;52.044;7.472;2022-09-20T13:11:18;3.55;;;0.70;;
17886;SDS011;9069;52.044;7.472;2022-09-20T13:16:20;2.65;;;0.60;;
17886;SDS011;9069;52.044;7.472;2022-09-20T13:21:56;2.33;;;0.50;;
17886;SDS011;9069;52.044;7.472;2022-09-20T13:24:40;2.80;;;0.60;;
17886;SDS011;9069;52.044;7.472;2022-09-20T13:27:14;2.03;;;0.47;;
17886;SDS011;9069;52.044;7.472;2022-09-20T13:29:54;2.03;;;0.47;;
17886;SDS011;9069;52.044;7.472;2022-09-20T13:32:42;2.30;;;0.60;;
17886;SDS011;9069;52.044;7.472;2022-09-20T13:35:13;2.45;;;0.68;;
17886;SDS011;9069;52.044;7.472;2022-09-20T13:43:01;2.00;;;0.50;;
17886;SDS011;9069;52.044;7.472;2022-09-20T13:45:53;1.48;;;0.55;;
17886;SDS011;9069;52.044;7.472;2022-09-20T13:48:25;2.85;;;0.70;;
17886;SDS011;9069;52.044;7.472;2022-09-20T13:50:54;3.03;;;0.65;;
17886;SDS011;9069;52.044;7.472;2022-09-20T13:53:24;1.05;;;0.60;;
17886;SDS011;9069;52.044;7.472;2022-09-20T13:56:17;2.03;;;0.60;;
17886;SDS011;9069;52.044;7.472;2022-09-20T13:58:48;2.70;;;0.60;;
17886;SDS011;9069;52.044;7.472;2022-09-20T14:01:23;2.25;;;0.50;;
17886;SDS011;9069;52.044;7.472;2022-09-20T14:06:33;1.33;;;0.30;;
17886;SDS011;9069;52.044;7.472;2022-09-20T14:09:02;2.15;;;0.50;;
17886;SDS011;9069;52.044;7.472;2022-09-20T14:11:36;4.15;;;0.57;;
17886;SDS011;9069;52.044;7.472;2022-09-20T14:14:04;2.45;;;0.50;;
17886;SDS011;9069;52.044;7.472;2022-09-20T14:16:39;1.75;;;0.50;;
17886;SDS011;9069;52.044;7.472;2022-09-20T14:19:10;1.75;;;0.63;;
17886;SDS011;9069;52.044;7.472;2022-09-20T14:21:41;0.93;;;0.60;;
17886;SDS011;9069;52.044;7.472;2022-09-20T14:26:40;1.50;;;0.57;;
17886;SDS011;9069;52.044;7.472;2022-09-20T14:31:55;3.10;;;0.70;;
17886;SDS011;9069;52.044;7.472;2022-09-20T14:34:25;1.25;;;0.40;;
17886;SDS011;9069;52.044;7.472;2022-09-20T14:36:58;3.47;;;0.90;;
17886;SDS011;9069;52.044;7.472;2022-09-20T14:39:32;2.08;;;0.40;;
17886;SDS011;9069;52.044;7.472;2022-09-20T14:42:19;2.72;;;0.45;;
17886;SDS011;9069;52.044;7.472;2022-09-20T14:44:53;0.43;;;0.32;;
17886;SDS011;9069;52.044;7.472;2022-09-20T14:47:55;1.80;;;0.60;;
17886;SDS011;9069;52.044;7.472;2022-09-20T14:50:23;0.80;;;0.30;;
17886;SDS011;9069;52.044;7.472;2022-09-20T14:52:58;0.45;;;0.20;;
17886;SDS011;9069;52.044;7.472;2022-09-20T14:55:29;0.90;;;0.40;;
17886;SDS011;9069;52.044;7.472;2022-09-20T14:58:06;3.08;;;0.80;;
17886;SDS011;9069;52.044;7.472;2022-09-20T15:00:45;2.65;;;0.50;;
17886;SDS011;9069;52.044;7.472;2022-09-20T15:03:14;2.80;;;0.98;;
17886;SDS011;9069;52.044;7.472;2022-09-20T15:05:43;3.05;;;0.40;;
17886;SDS011;9069;52.044;7.472;2022-09-20T15:08:13;1.55;;;0.50;;
17886;SDS011;9069;52.044;7.472;2022-09-20T15:10:40;1.58;;;0.40;;
17886;SDS011;9069;52.044;7.472;2022-09-20T15:13:08;1.52;;;0.50;;
17886;SDS011;9069;52.044;7.472;2022-09-20T15:15:36;1.08;;;0.60;;
17886;SDS011;9069;52.044;7.472;2022-09-20T15:18:04;1.15;;;0.50;;
17886;SDS011;9069;52.044;7.472;2022-09-20T15:20:36;3.50;;;0.30;;
17886;SDS011;9069;52.044;7.472;2022-09-20T15:23:03;2.47;;;0.52;;
17886;SDS011;9069;52.044;7.472;2022-09-20T15:25:30;1.25;;;0.60;;
17886;SDS011;9069;52.044;7.472;2022-09-20T15:27:57;4.35;;;0.85;;
17886;SDS011;9069;52.044;7.472;2022-09-20T15:30:24;2.67;;;0.70;;
17886;SDS011;9069;52.044;7.472;2022-09-20T15:32:51;1.42;;;0.93;;
17886;SDS011;9069;52.044;7.472;2022-09-20T15:35:18;2.00;;;0.93;;
17886;SDS011;9069;52.044;7.472;2022-09-20T15:37:45;2.88;;;1.30;;
17886;SDS011;9069;52.044;7.472;2022-09-20T15:40:11;3.17;;;0.85;;
17886;SDS011;9069;52.044;7.472;2022-09-20T15:42:38;1.67;;;0.63;;
17886;SDS011;9069;52.044;7.472;2022-09-20T15:45:07;2.17;;;0.70;;
17886;SDS011;9069;52.044;7.472;2022-09-20T15:47:35;5.03;;;0.70;;
17886;SDS011;9069;52.044;7.472;2022-09-20T15:50:06;1.48;;;0.40;;
17886;SDS011;9069;52.044;7.472;2022-09-20T15:52:34;1.75;;;0.75;;
17886;SDS011;9069;52.044;7.472;2022-09-20T15:55:05;2.15;;;0.45;;
17886;SDS011;9069;52.044;7.472;2022-09-20T15:57:33;4.15;;;0.47;;
17886;SDS011;9069;52.044;7.472;2022-09-20T16:00:00;2.05;;;0.50;;
17886;SDS011;9069;52.044;7.472;2022-09-20T16:02:33;1.77;;;0.80;;
17886;SDS011;9069;52.044;7.472;2022-09-20T16:05:00;1.80;;;0.50;;
17886;SDS011;9069;52.044;7.472;2022-09-20T16:07:27;1.85;;;0.50;;
17886;SDS011;9069;52.044;7.472;2022-09-20T16:09:54;3.58;;;0.60;;
17886;SDS011;9069;52.044;7.472;2022-09-20T16:12:22;0.90;;;0.63;;
17886;SDS011;9069;52.044;7.472;2022-09-20T16:14:50;2.33;;;0.50;;
17886;SDS011;9069;52.044;7.472;2022-09-20T16:17:17;0.70;;;0.50;;
17886;SDS011;9069;52.044;7.472;2022-09-20T16:20:04;2.00;;;0.50;;
17886;SDS011;9069;52.044;7.472;2022-09-20T16:22:31;0.50;;;0.35;;
17886;SDS011;9069;52.044;7.472;2022-09-20T16:24:59;2.83;;;0.77;;
17886;SDS011;9069;52.044;7.472;2022-09-20T16:27:26;0.90;;;0.65;;
17886;SDS011;9069;52.044;7.472;2022-09-20T16:29:53;1.15;;;0.60;;
17886;SDS011;9069;52.044;7.472;2022-09-20T16:32:20;2.08;;;0.80;;
17886;SDS011;9069;52.044;7.472;2022-09-20T16:34:46;1.73;;;0.70;;
17886;SDS011;9069;52.044;7.472;2022-09-20T16:37:16;1.23;;;0.50;;
17886;SDS011;9069;52.044;7.472;2022-09-20T16:39:42;0.93;;;0.60;;
17886;SDS011;9069;52.044;7.472;2022-09-20T16:42:09;1.95;;;0.50;;
17886;SDS011;9069;52.044;7.472;2022-09-20T16:44:37;1.70;;;0.65;;
17886;SDS011;9069;52.044;7.472;2022-09-20T16:47:07;1.65;;;0.60;;
17886;SDS011;9069;52.044;7.472;2022-09-20T16:49:37;2.92;;;0.60;;
17886;SDS011;9069;52.044;7.472;2022-09-20T16:52:05;1.17;;;0.60;;
17886;SDS011;9069;52.044;7.472;2022-09-20T16:54:34;2.60;;;0.50;;
17886;SDS011;9069;52.044;7.472;2022-09-20T16:57:00;1.95;;;0.80;;
17886;SDS011;9069;52.044;7.472;2022-09-20T16:59:27;2.50;;;1.00;;
17886;SDS011;9069;52.044;7.472;2022-09-20T17:01:54;3.30;;;1.60;;
17886;SDS011;9069;52.044;7.472;2022-09-20T17:04:21;1.25;;;0.93;;
17886;SDS011;9069;52.044;7.472;2022-09-20T17:06:48;1.58;;;1.17;;
17886;SDS011;9069;52.044;7.472;2022-09-20T17:09:16;4.50;;;1.10;;
17886;SDS011;9069;52.044;7.472;2022-09-20T17:11:43;0.93;;;0.90;;
17886;SDS011;9069;52.044;7.472;2022-09-20T17:14:13;3.40;;;1.13;;
17886;SDS011;9069;52.044;7.472;2022-09-20T17:16:41;1.48;;;0.70;;
17886;SDS011;9069;52.044;7.472;2022-09-20T17:19:10;2.40;;;0.77;;
17886;SDS011;9069;52.044;7.472;2022-09-20T17:21:39;2.92;;;0.73;;
17886;SDS011;9069;52.044;7.472;2022-09-20T17:24:08;3.58;;;0.80;;
17886;SDS011;9069;52.044;7.472;2022-09-20T17:26:36;0.85;;;0.85;;
17886;SDS011;9069;52.044;7.472;2022-09-20T17:29:06;2.15;;;0.98;;
17886;SDS011;9069;52.044;7.472;2022-09-20T17:31:38;2.20;;;1.00;;
17886;SDS011;9069;52.044;7.472;2022-09-20T17:34:07;1.88;;;1.25;;
17886;SDS011;9069;52.044;7.472;2022-09-20T17:36:42;6.85;;;1.55;;
17886;SDS011;9069;52.044;7.472;2022-09-20T17:39:11;5.53;;;2.15;;
17886;SDS011;9069;52.044;7.472;2022-09-20T17:41:40;15.88;;;11.35;;
17886;SDS011;9069;52.044;7.472;2022-09-20T17:44:08;18.50;;;11.45;;
17886;SDS011;9069;52.044;7.472;2022-09-20T17:46:37;16.05;;;11.07;;
17886;SDS011;9069;52.044;7.472;2022-09-20T17:49:06;15.63;;;11.45;;
17886;SDS011;9069;52.044;7.472;2022-09-20T17:54:03;13.30;;;9.48;;
17886;SDS011;9069;52.044;7.472;2022-09-20T17:56:31;11.25;;;5.30;;
17886;SDS011;9069;52.044;7.472;2022-09-20T17:58:59;9.98;;;4.22;;
17886;SDS011;9069;52.044;7.472;2022-09-20T18:01:28;4.03;;;3.25;;
17886;SDS011;9069;52.044;7.472;2022-09-20T18:03:57;20.05;;;9.57;;
17886;SDS011;9069;52.044;7.472;2022-09-20T18:06:26;27.45;;;12.35;;
17886;SDS011;9069;52.044;7.472;2022-09-20T18:08:56;33.50;;;12.98;;
17886;SDS011;9069;52.044;7.472;2022-09-20T18:11:28;31.35;;;14.52;;
17886;SDS011;9069;52.044;7.472;2022-09-20T18:13:57;23.33;;;9.77;;
17886;SDS011;9069;52.044;7.472;2022-09-20T18:16:25;19.73;;;9.48;;
17886;SDS011;9069;52.044;7.472;2022-09-20T18:18:52;13.50;;;5.95;;
17886;SDS011;9069;52.044;7.472;2022-09-20T18:21:20;14.85;;;6.00;;
17886;SDS011;9069;52.044;7.472;2022-09-20T18:23:48;13.30;;;5.30;;
17886;SDS011;9069;52.044;7.472;2022-09-20T18:26:17;11.77;;;4.90;;
17886;SDS011;9069;52.044;7.472;2022-09-20T18:28:51;9.43;;;4.03;;
17886;SDS011;9069;52.044;7.472;2022-09-20T18:31:20;7.18;;;3.55;;
17886;SDS011;9069;52.044;7.472;2022-09-20T18:33:51;8.98;;;2.95;;
17886;SDS011;9069;52.044;7.472;2022-09-20T18:36:21;7.13;;;3.45;;
17886;SDS011;9069;52.044;7.472;2022-09-20T18:38:51;7.05;;;3.60;;
17886;SDS011;9069;52.044;7.472;2022-09-20T18:41:20;10.23;;;3.55;;
17886;SDS011;9069;52.044;7.472;2022-09-20T18:43:51;6.72;;;3.30;;
17886;SDS011;9069;52.044;7.472;2022-09-20T18:46:19;6.05;;;3.28;;
17886;SDS011;9069;52.044;7.472;2022-09-20T18:48:51;4.25;;;2.47;;
17886;SDS011;9069;52.044;7.472;2022-09-20T18:51:19;5.78;;;3.17;;
17886;SDS011;9069;52.044;7.472;2022-09-20T18:53:46;7.90;;;3.72;;
17886;SDS011;9069;52.044;7.472;2022-09-20T18:56:23;10.73;;;3.72;;
17886;SDS011;9069;52.044;7.472;2022-09-20T19:01:46;7.50;;;4.20;;
17886;SDS011;9069;52.044;7.472;2022-09-20T19:04:41;9.68;;;4.32;;
17886;SDS011;9069;52.044;7.472;2022-09-20T19:07:16;6.93;;;3.20;;
17886;SDS011;9069;52.044;7.472;2022-09-20T19:10:12;5.85;;;3.90;;
17886;SDS011;9069;52.044;7.472;2022-09-20T19:12:52;5.90;;;3.50;;
17886;SDS011;9069;52.044;7.472;2022-09-20T19:15:50;6.90;;;3.88;;
17886;SDS011;9069;52.044;7.472;2022-09-20T19:18:31;7.57;;;3.80;;
17886;SDS011;9069;52.044;7.472;2022-09-20T19:21:19;7.22;;;4.40;;
17886;SDS011;9069;52.044;7.472;2022-09-20T19:26:29;7.10;;;3.90;;
17886;SDS011;9069;52.044;7.472;2022-09-20T19:28:58;10.13;;;4.55;;
17886;SDS011;9069;52.044;7.472;2022-09-20T19:31:26;6.72;;;3.58;;
17886;SDS011;9069;52.044;7.472;2022-09-20T19:33:58;6.05;;;3.63;;
17886;SDS011;9069;52.044;7.472;2022-09-20T19:39:35;4.65;;;2.60;;
17886;SDS011;9069;52.044;7.472;2022-09-20T19:47:28;4.25;;;2.40;;
17886;SDS011;9069;52.044;7.472;2022-09-20T19:52:53;6.55;;;2.58;;
17886;SDS011;9069;52.044;7.472;2022-09-20T19:55:21;5.22;;;2.97;;
17886;SDS011;9069;52.044;7.472;2022-09-20T19:57:48;4.90;;;2.65;;
17886;SDS011;9069;52.044;7.472;2022-09-20T20:00:17;3.95;;;2.60;;
17886;SDS011;9069;52.044;7.472;2022-09-20T20:02:46;5.82;;;2.75;;
17886;SDS011;9069;52.044;7.472;2022-09-20T20:05:14;4.60;;;2.72;;
17886;SDS011;9069;52.044;7.472;2022-09-20T20:13:07;4.82;;;2.65;;
17886;SDS011;9069;52.044;7.472;2022-09-20T20:16:05;5.68;;;2.72;;
17886;SDS011;9069;52.044;7.472;2022-09-20T20:21:30;4.05;;;2.55;;
17886;SDS011;9069;52.044;7.472;2022-09-20T20:27:02;4.28;;;2.13;;
17886;SDS011;9069;52.044;7.472;2022-09-20T20:29:29;3.53;;;2.50;;
17886;SDS011;9069;52.044;7.472;2022-09-20T20:31:55;4.38;;;2.03;;
17886;SDS011;9069;52.044;7.472;2022-09-20T20:34:22;4.30;;;1.90;;
17886;SDS011;9069;52.044;7.472;2022-09-20T20:36:51;3.65;;;1.98;;
17886;SDS011;9069;52.044;7.472;2022-09-20T20:39:28;4.63;;;1.70;;
17886;SDS011;9069;52.044;7.472;2022-09-20T20:41:57;3.53;;;1.92;;
17886;SDS011;9069;52.044;7.472;2022-09-20T20:44:28;2.92;;;1.75;;
17886;SDS011;9069;52.044;7.472;2022-09-20T20:46:56;2.75;;;1.77;;
17886;SDS011;9069;52.044;7.472;2022-09-20T20:49:22;2.70;;;1.50;;
17886;SDS011;9069;52.044;7.472;2022-09-20T20:51:49;2.38;;;1.48;;
17886;SDS011;9069;52.044;7.472;2022-09-20T20:54:16;5.07;;;1.65;;